Time;durP1;ratioP1;P1;durP2;ratioP2;P2;SDS_P1;SDS_P2;PMS_P1;PMS_P2;Temp;Humidity;BMP_temperature;BMP_pressure;BME280_temperature;BME280_humidity;BME280_pressure;Samples;Min_cycle;Max_cycle;Signal;HPM_P1;HPM_P2
2021/09/18 00:00:10;;;;;;;9.48;8.48;;;;;;;15.08;100.00;96258.97;4986710;28;20491;-57
2021/09/18 00:02:39;;;;;;;9.13;7.87;;;;;;;14.95;100.00;96256.88;4987665;28;20070;-58
2021/09/18 00:05:10;;;;;;;9.15;7.68;;;;;;;14.89;100.00;96257.59;4989883;28;20076;-56
2021/09/18 00:07:40;;;;;;;9.95;7.82;;;;;;;15.04;100.00;96256.84;4996660;28;20092;-56
2021/09/18 00:10:09;;;;;;;9.68;8.68;;;;;;;14.89;100.00;96254.13;4989075;28;20555;-59
2021/09/18 00:12:38;;;;;;;11.07;8.68;;;;;;;15.36;100.00;96255.75;4989274;28;20070;-60
2021/09/18 00:15:08;;;;;;;11.13;9.40;;;;;;;14.80;100.00;96245.41;4989830;28;20577;-60
2021/09/18 00:17:36;;;;;;;12.10;8.57;;;;;;;15.22;100.00;96251.22;4990162;28;20080;-59
2021/09/18 00:20:06;;;;;;;10.60;9.43;;;;;;;15.32;100.00;96249.97;4988514;28;20073;-60
2021/09/18 00:22:34;;;;;;;14.63;9.55;;;;;;;15.20;100.00;96248.72;4988604;28;20077;-60
2021/09/18 00:25:06;;;;;;;10.90;8.80;;;;;;;15.11;100.00;96252.47;4995546;28;20069;-55
2021/09/18 00:27:35;;;;;;;10.52;9.18;;;;;;;15.14;100.00;96249.44;4987593;28;20077;-60
2021/09/18 00:30:04;;;;;;;12.15;8.70;;;;;;;14.71;100.00;96249.09;4992400;28;20073;-60
2021/09/18 00:32:33;;;;;;;13.23;7.37;;;;;;;15.24;100.00;96262.47;4992448;28;20076;-59
2021/09/18 00:35:02;;;;;;;9.30;7.22;;;;;;;14.89;100.00;96252.28;4995653;28;20461;-58
2021/09/18 00:37:31;;;;;;;8.88;7.28;;;;;;;14.61;100.00;96265.22;4988989;28;20069;-60
2021/09/18 00:39:59;;;;;;;8.32;7.43;;;;;;;14.56;100.00;96258.81;4995260;28;20670;-58
2021/09/18 00:42:29;;;;;;;9.25;7.85;;;;;;;14.84;100.00;96254.66;4997918;28;20072;-59
2021/09/18 00:44:59;;;;;;;10.82;7.97;;;;;;;14.52;100.00;96253.03;4988519;28;20052;-58
2021/09/18 00:47:27;;;;;;;13.93;9.23;;;;;;;14.78;100.00;96250.03;4990504;28;20066;-57
2021/09/18 00:49:56;;;;;;;9.43;8.13;;;;;;;14.59;100.00;96255.78;4989828;28;20058;-59
2021/09/18 00:52:24;;;;;;;9.48;7.90;;;;;;;14.69;100.00;96253.75;4993947;28;20085;-59
2021/09/18 00:54:53;;;;;;;10.38;7.97;;;;;;;14.64;100.00;96245.50;4988190;28;20323;-59
2021/09/18 00:57:21;;;;;;;10.10;7.95;;;;;;;14.50;100.00;96244.41;4991089;28;20552;-59
2021/09/18 00:59:51;;;;;;;10.73;8.00;;;;;;;14.23;100.00;96253.63;4991044;28;20058;-60
2021/09/18 01:02:19;;;;;;;9.57;8.35;;;;;;;14.05;100.00;96253.03;4991090;28;20064;-60
2021/09/18 01:04:48;;;;;;;10.00;8.73;;;;;;;14.51;100.00;96251.34;4986243;28;20054;-60
2021/09/18 01:07:17;;;;;;;11.55;8.40;;;;;;;14.37;100.00;96255.53;4986966;28;20078;-60
2021/09/18 01:09:46;;;;;;;11.38;8.45;;;;;;;14.28;100.00;96253.94;4990849;28;20523;-60
2021/09/18 01:12:14;;;;;;;12.13;8.02;;;;;;;14.57;100.00;96255.97;4987258;28;20532;-55
2021/09/18 01:14:44;;;;;;;11.00;8.43;;;;;;;14.25;100.00;96249.81;4993977;28;20088;-59
2021/09/18 01:17:15;;;;;;;9.32;7.88;;;;;;;14.45;100.00;96259.97;4990545;28;20595;-59
2021/09/18 01:19:43;;;;;;;10.30;7.88;;;;;;;14.37;100.00;96260.03;4984494;28;20555;-60
2021/09/18 01:22:14;;;;;;;9.88;8.20;;;;;;;14.64;100.00;96262.22;4989007;28;20076;-59
2021/09/18 01:24:43;;;;;;;13.80;8.93;;;;;;;14.26;100.00;96263.88;4993119;28;20081;-60
2021/09/18 01:27:12;;;;;;;11.75;8.45;;;;;;;14.10;100.00;96254.16;4986774;28;20074;-59
2021/09/18 01:29:42;;;;;;;11.75;8.88;;;;;;;14.34;100.00;96253.22;4982221;28;20078;-59
2021/09/18 01:32:10;;;;;;;10.98;8.68;;;;;;;14.31;100.00;96252.75;4990387;28;20066;-60
2021/09/18 01:34:39;;;;;;;11.35;9.00;;;;;;;14.25;100.00;96259.59;4988264;28;20108;-59
2021/09/18 01:37:12;;;;;;;14.48;8.52;;;;;;;14.44;100.00;96258.34;4991473;28;20094;-60
2021/09/18 01:39:40;;;;;;;13.00;9.32;;;;;;;14.36;100.00;96255.72;4988133;28;20077;-55
2021/09/18 01:42:10;;;;;;;17.27;9.90;;;;;;;14.17;100.00;96259.59;4990433;28;20535;-59
2021/09/18 01:44:38;;;;;;;15.55;9.52;;;;;;;14.45;100.00;96262.63;4989090;28;20555;-53
2021/09/18 01:47:07;;;;;;;12.82;9.63;;;;;;;14.16;100.00;96258.78;4987392;28;20073;-59
2021/09/18 01:49:35;;;;;;;10.20;8.45;;;;;;;14.10;100.00;96263.94;4984187;28;20089;-59
2021/09/18 01:52:07;;;;;;;12.73;9.40;;;;;;;14.31;100.00;96258.06;4991391;28;20081;-59
2021/09/18 01:54:37;;;;;;;14.60;9.20;;;;;;;14.01;100.00;96257.84;4991362;28;20058;-60
2021/09/18 01:57:07;;;;;;;9.35;7.80;;;;;;;14.37;100.00;96260.84;4986809;28;20429;-58
2021/09/18 01:59:37;;;;;;;;;;;;;;;14.34;100.00;96260.38;4991622;28;20460;-60
2021/09/18 02:02:05;;;;;;;12.40;8.98;;;;;;;14.20;100.00;96260.09;4983745;28;20415;-60
2021/09/18 02:04:34;;;;;;;12.57;9.65;;;;;;;14.15;100.00;96256.31;4991247;28;20113;-59
2021/09/18 02:07:03;;;;;;;12.10;9.50;;;;;;;14.14;100.00;96258.16;4995281;28;20582;-60
2021/09/18 02:09:32;;;;;;;13.73;10.05;;;;;;;14.15;100.00;96251.00;4992516;28;20065;-60
2021/09/18 02:12:00;;;;;;;14.35;10.32;;;;;;;14.17;100.00;96251.66;4987773;28;20225;-59
2021/09/18 02:14:29;;;;;;;14.80;10.20;;;;;;;13.94;100.00;96254.25;4984994;28;20073;-55
2021/09/18 02:16:59;;;;;;;14.55;11.10;;;;;;;14.24;100.00;96253.44;4986458;28;20181;-58
2021/09/18 02:19:27;;;;;;;20.88;11.38;;;;;;;14.11;100.00;96245.22;4986428;28;20089;-58
2021/09/18 02:21:56;;;;;;;13.45;10.65;;;;;;;14.57;100.00;96244.53;4991615;28;20075;-60
2021/09/18 02:24:24;;;;;;;13.40;10.50;;;;;;;14.58;100.00;96246.19;4994245;28;20069;-59
2021/09/18 02:26:52;;;;;;;13.68;9.90;;;;;;;13.91;100.00;96252.75;4989762;28;20093;-58
2021/09/18 02:29:21;;;;;;;16.40;10.18;;;;;;;14.27;100.00;96248.78;4988689;28;20077;-59
2021/09/18 02:31:49;;;;;;;12.73;9.25;;;;;;;13.96;100.00;96247.75;4985941;28;20469;-60
2021/09/18 02:34:19;;;;;;;16.40;9.32;;;;;;;14.05;100.00;96245.91;4993983;28;20096;-59
2021/09/18 02:36:48;;;;;;;12.55;9.70;;;;;;;14.12;100.00;96246.06;4985848;28;20080;-59
2021/09/18 02:39:16;;;;;;;13.13;8.93;;;;;;;14.51;100.00;96247.88;4988129;28;20079;-59
2021/09/18 02:41:45;;;;;;;13.40;9.00;;;;;;;14.16;100.00;96248.19;4992705;28;20073;-59
2021/09/18 02:44:13;;;;;;;12.60;9.20;;;;;;;14.29;100.00;96250.28;4989258;28;20464;-57
2021/09/18 02:46:42;;;;;;;18.55;9.15;;;;;;;13.91;100.00;96257.22;4994263;28;20078;-58
2021/09/18 02:49:10;;;;;;;11.38;9.07;;;;;;;13.82;100.00;96255.59;4997087;28;20081;-59
2021/09/18 02:51:40;;;;;;;13.43;8.75;;;;;;;13.93;100.00;96250.72;4989982;28;20069;-58
2021/09/18 02:54:09;;;;;;;13.75;9.07;;;;;;;14.05;100.00;96251.22;4988874;28;20082;-56
2021/09/18 02:56:37;;;;;;;14.43;9.38;;;;;;;13.71;100.00;96254.13;4990444;28;20073;-58
2021/09/18 02:59:06;;;;;;;12.82;9.20;;;;;;;-146.19;100.00;101358.22;4992533;28;20062;-58
2021/09/18 03:01:34;;;;;;;13.15;9.38;;;;;;;-146.19;100.00;96254.81;4993943;28;20084;-59
2021/09/18 03:04:03;;;;;;;15.70;8.65;;;;;;;14.12;100.00;96254.81;4992551;28;20077;-59
2021/09/18 03:06:32;;;;;;;13.93;9.05;;;;;;;13.42;100.00;96260.81;4988000;28;20066;-59
2021/09/18 03:09:02;;;;;;;13.88;9.48;;;;;;;13.67;100.00;96247.50;4993135;28;20074;-59
2021/09/18 03:11:30;;;;;;;17.40;10.07;;;;;;;13.91;100.00;96255.41;4993582;28;20136;-59
2021/09/18 03:13:59;;;;;;;14.30;9.15;;;;;;;13.77;100.00;96248.16;4995720;28;20073;-58
2021/09/18 03:16:27;;;;;;;14.98;9.27;;;;;;;13.61;100.00;96246.34;4995650;28;20089;-60
2021/09/18 03:18:56;;;;;;;15.05;9.73;;;;;;;13.90;100.00;96245.81;4990641;28;20069;-58
2021/09/18 03:21:24;;;;;;;14.77;10.15;;;;;;;13.71;100.00;96247.00;4990932;28;20081;-59
2021/09/18 03:23:53;;;;;;;13.13;9.70;;;;;;;13.45;100.00;96235.78;4992749;28;20069;-57
2021/09/18 03:26:23;;;;;;;13.77;9.68;;;;;;;13.26;100.00;96248.38;4990114;28;20073;-60
2021/09/18 03:28:51;;;;;;;15.23;9.60;;;;;;;13.52;100.00;96237.63;4990665;28;20074;-58
2021/09/18 03:31:20;;;;;;;15.65;9.73;;;;;;;13.57;100.00;96241.56;4996144;28;20082;-57
2021/09/18 03:33:48;;;;;;;13.65;9.30;;;;;;;13.35;100.00;96243.06;4994095;28;20065;-55
2021/09/18 03:36:17;;;;;;;11.40;8.57;;;;;;;13.24;100.00;96245.06;4990779;28;20065;-58
2021/09/18 03:38:46;;;;;;;13.00;9.40;;;;;;;13.12;100.00;96235.78;4991505;28;20057;-58
2021/09/18 03:41:14;;;;;;;12.68;9.10;;;;;;;13.26;100.00;96244.91;4991984;28;20061;-56
2021/09/18 03:43:44;;;;;;;14.00;9.07;;;;;;;-146.19;100.00;-17548.53;4989771;28;20081;-56
2021/09/18 03:46:13;;;;;;;15.40;10.15;;;;;;;13.72;100.00;96240.69;4995100;28;20100;-60
2021/09/18 03:48:41;;;;;;;14.85;9.93;;;;;;;13.66;100.00;96240.53;4986628;28;20523;-59
2021/09/18 03:51:10;;;;;;;14.02;10.13;;;;;;;13.38;100.00;96240.09;4985771;28;20445;-57
2021/09/18 03:53:38;;;;;;;11.27;8.50;;;;;;;13.40;100.00;96235.47;4990530;28;20061;-58
2021/09/18 03:56:07;;;;;;;12.85;9.30;;;;;;;13.47;100.00;96239.91;4990017;28;20492;-60
2021/09/18 03:58:35;;;;;;;15.02;8.75;;;;;;;13.48;100.00;96241.56;4992578;28;20085;-60
2021/09/18 04:01:05;;;;;;;12.98;8.20;;;;;;;13.61;100.00;96232.28;4989974;28;20146;-58
2021/09/18 04:03:34;;;;;;;15.20;8.85;;;;;;;13.64;100.00;96237.25;4990353;28;20167;-58
2021/09/18 04:06:03;;;;;;;12.73;8.40;;;;;;;13.56;100.00;96240.75;4985200;28;20065;-58
2021/09/18 04:08:32;;;;;;;9.55;8.02;;;;;;;13.33;100.00;96245.91;4991339;28;20065;-57
2021/09/18 04:11:00;;;;;;;11.32;7.70;;;;;;;13.34;100.00;96246.72;4987726;28;20452;-58
2021/09/18 04:13:29;;;;;;;10.07;8.43;;;;;;;13.64;100.00;96239.91;4990114;28;20089;-58
2021/09/18 04:15:57;;;;;;;12.90;8.35;;;;;;;13.26;100.00;96239.63;4992169;28;20073;-57
2021/09/18 04:18:27;;;;;;;13.85;8.63;;;;;;;13.42;100.00;96242.25;4988918;28;20440;-59
2021/09/18 04:20:56;;;;;;;15.00;9.35;;;;;;;13.51;100.00;96251.00;4987346;28;20468;-56
2021/09/18 04:23:24;;;;;;;11.93;9.30;;;;;;;13.64;100.00;96240.72;4988275;28;20085;-58
2021/09/18 04:25:53;;;;;;;13.90;8.95;;;;;;;13.63;100.00;96246.19;4989783;28;20076;-56
2021/09/18 04:28:21;;;;;;;11.05;8.40;;;;;;;13.68;100.00;96246.50;4990507;28;20086;-55
2021/09/18 04:30:50;;;;;;;11.45;8.75;;;;;;;13.64;100.00;96246.03;4985954;28;20073;-59
2021/09/18 04:33:18;;;;;;;12.75;8.88;;;;;;;13.21;100.00;96242.75;4990338;28;20070;-59
2021/09/18 04:35:48;;;;;;;11.23;9.18;;;;;;;13.17;100.00;96243.22;4987745;28;20066;-58
2021/09/18 04:38:18;;;;;;;14.95;9.20;;;;;;;13.81;100.00;96244.16;4988643;28;20074;-58
2021/09/18 04:40:46;;;;;;;14.23;9.13;;;;;;;13.34;100.00;96255.50;4988915;28;20090;-58
2021/09/18 04:43:15;;;;;;;12.52;8.73;;;;;;;13.70;100.00;96255.13;5010831;28;20100;-58
2021/09/18 04:45:44;;;;;;;12.52;8.40;;;;;;;13.32;100.00;96260.16;4992060;28;20058;-58
2021/09/18 04:48:12;;;;;;;10.88;8.65;;;;;;;13.33;100.00;96256.50;4989494;28;20077;-54
2021/09/18 04:50:41;;;;;;;11.98;8.75;;;;;;;13.71;100.00;96254.94;4988163;28;20070;-59
2021/09/18 04:53:11;;;;;;;12.10;8.77;;;;;;;13.84;100.00;96265.03;4987385;28;20528;-59
2021/09/18 04:55:40;;;;;;;13.75;8.80;;;;;;;13.88;100.00;96268.16;4990148;28;20081;-59
2021/09/18 04:58:09;;;;;;;11.98;8.82;;;;;;;13.89;100.00;96267.16;4995080;28;20089;-59
2021/09/18 05:00:38;;;;;;;10.60;8.32;;;;;;;13.91;100.00;96268.66;4989015;28;20148;-58
2021/09/18 05:03:07;;;;;;;10.35;8.18;;;;;;;13.33;100.00;96272.38;4987491;28;20084;-60
2021/09/18 05:05:36;;;;;;;11.68;8.68;;;;;;;13.40;100.00;96272.56;4987808;28;20080;-59
2021/09/18 05:08:06;;;;;;;12.27;7.95;;;;;;;13.34;100.00;96273.22;4988615;28;20076;-59
2021/09/18 05:10:36;;;;;;;10.20;8.07;;;;;;;13.31;100.00;96279.66;4988042;28;20108;-56
2021/09/18 05:13:04;;;;;;;12.57;8.10;;;;;;;13.28;100.00;96272.03;4992282;28;20086;-59
2021/09/18 05:15:33;;;;;;;10.63;7.35;;;;;;;13.30;100.00;96286.78;4988403;28;20070;-59
2021/09/18 05:18:01;;;;;;;10.52;7.85;;;;;;;13.69;100.00;96278.13;4988963;28;20080;-60
2021/09/18 05:20:30;;;;;;;11.50;8.57;;;;;;;13.78;100.00;96273.66;4987170;28;20070;-59
2021/09/18 05:22:58;;;;;;;10.82;8.52;;;;;;;13.90;100.00;96269.66;4987262;28;20066;-59
2021/09/18 05:25:27;;;;;;;12.30;8.80;;;;;;;14.02;100.00;96278.88;4985436;28;20082;-55
2021/09/18 05:27:57;;;;;;;11.82;8.25;;;;;;;13.94;100.00;96281.56;4987477;28;20066;-57
2021/09/18 05:30:25;;;;;;;11.68;9.20;;;;;;;14.24;100.00;96273.84;4985505;28;20109;-59
2021/09/18 05:32:54;;;;;;;12.75;8.85;;;;;;;14.53;100.00;96281.22;4986939;28;20074;-59
2021/09/18 05:35:23;;;;;;;10.32;8.52;;;;;;;14.62;100.00;96284.63;4985075;28;20076;-59
2021/09/18 05:37:51;;;;;;;16.58;8.90;;;;;;;14.55;100.00;96283.69;4984797;28;20406;-53
2021/09/18 05:40:24;;;;;;;13.90;8.57;;;;;;;14.42;100.00;96289.53;4987425;28;20090;-59
2021/09/18 05:42:53;;;;;;;12.27;8.40;;;;;;;14.27;100.00;96285.94;4984888;28;20081;-59
2021/09/18 05:45:23;;;;;;;10.55;8.30;;;;;;;14.67;100.00;96283.13;4982862;28;20085;-59
2021/09/18 05:47:51;;;;;;;10.98;8.23;;;;;;;14.98;100.00;96276.97;4985085;28;20073;-54
2021/09/18 05:50:20;;;;;;;10.00;7.47;;;;;;;15.19;100.00;96282.44;4984804;28;20062;-58
2021/09/18 05:52:49;;;;;;;9.32;7.40;;;;;;;15.43;100.00;96288.56;4984057;28;20062;-58
2021/09/18 05:55:17;;;;;;;9.65;7.50;;;;;;;15.34;100.00;96292.28;4987729;28;20061;-58
2021/09/18 05:57:46;;;;;;;12.35;7.88;;;;;;;14.85;100.00;96295.28;4984782;28;20062;-58
2021/09/18 06:00:15;;;;;;;10.20;8.00;;;;;;;15.32;100.00;96289.81;4984020;28;20069;-57
2021/09/18 06:02:45;;;;;;;11.95;8.00;;;;;;;15.79;100.00;96285.28;4983965;28;20073;-58
2021/09/18 06:05:14;;;;;;;10.82;7.72;;;;;;;15.97;100.00;96291.09;4985610;28;20077;-52
2021/09/18 06:07:42;;;;;;;11.10;8.77;;;;;;;15.82;100.00;96292.91;4984971;28;20085;-59
2021/09/18 06:10:12;;;;;;;11.70;8.70;;;;;;;16.17;100.00;96294.00;4989543;28;20086;-60
2021/09/18 06:12:41;;;;;;;10.30;8.38;;;;;;;16.45;100.00;96293.34;4986146;28;20062;-58
2021/09/18 06:15:10;;;;;;;13.13;8.45;;;;;;;16.76;100.00;96294.00;4985842;28;20062;-60
2021/09/18 06:17:38;;;;;;;12.57;9.50;;;;;;;16.89;100.00;96290.63;4986405;28;20070;-52
2021/09/18 06:20:10;;;;;;;18.67;10.27;;;;;;;16.26;100.00;96290.25;4987502;28;20061;-59
2021/09/18 06:22:38;;;;;;;13.65;9.13;;;;;;;16.96;100.00;96291.53;4986693;28;20099;-53
2021/09/18 06:25:11;;;;;;;14.23;10.07;;;;;;;16.96;100.00;96294.19;4994520;28;20089;-60
2021/09/18 06:27:40;;;;;;;12.57;10.00;;;;;;;17.20;100.00;96298.34;4994107;28;20066;-60
2021/09/18 06:30:09;;;;;;;14.40;10.52;;;;;;;16.88;100.00;96293.50;4993630;28;20069;-59
2021/09/18 06:32:38;;;;;;;15.43;10.93;;;;;;;17.32;100.00;96294.16;4989794;28;20065;-58
2021/09/18 06:35:09;;;;;;;13.48;10.75;;;;;;;17.15;100.00;96283.94;4992159;28;20068;-60
2021/09/18 06:37:43;;;;;;;13.10;10.15;;;;;;;17.67;100.00;96288.91;4991471;28;20092;-59
2021/09/18 06:40:12;;;;;;;15.38;11.00;;;;;;;17.60;100.00;96293.38;4995020;28;20058;-58
2021/09/18 06:42:41;;;;;;;12.95;10.50;;;;;;;17.47;100.00;96286.09;4988831;28;20093;-57
2021/09/18 06:45:10;;;;;;;13.73;10.57;;;;;;;18.08;100.00;96285.56;4998254;28;20064;-60
2021/09/18 06:47:39;;;;;;;14.18;10.07;;;;;;;18.14;100.00;96286.63;4996759;28;20078;-58
2021/09/18 06:50:10;;;;;;;12.60;10.70;;;;;;;18.39;100.00;96284.28;4993510;28;20785;-59
2021/09/18 06:52:39;;;;;;;14.05;10.65;;;;;;;18.47;100.00;96292.13;4988470;28;20193;-57
2021/09/18 06:55:08;;;;;;;15.45;11.60;;;;;;;18.02;100.00;96294.34;4993809;28;20749;-57
2021/09/18 06:57:38;;;;;;;19.48;12.43;;;;;;;18.57;100.00;96292.59;4990310;28;20071;-59
2021/09/18 07:00:08;;;;;;;14.98;11.35;;;;;;;18.42;100.00;96298.06;4992157;28;20049;-59
2021/09/18 07:02:37;;;;;;;19.73;12.25;;;;;;;18.64;100.00;96303.28;4993073;28;20757;-58
2021/09/18 07:05:09;;;;;;;15.48;12.02;;;;;;;18.31;100.00;96301.31;4989825;28;20100;-60
2021/09/18 07:07:38;;;;;;;15.30;11.32;;;;;;;18.60;100.00;96302.06;4992190;28;20090;-56
2021/09/18 07:10:08;;;;;;;15.23;11.75;;;;;;;18.72;100.00;96301.31;4994733;28;20070;-59
2021/09/18 07:12:37;;;;;;;14.40;11.35;;;;;;;18.54;100.00;96308.19;4992138;28;20070;-60
2021/09/18 07:15:07;;;;;;;18.70;13.32;;;;;;;18.81;100.00;96309.16;4992653;28;20077;-59
2021/09/18 07:17:35;;;;;;;16.80;13.13;;;;;;;18.86;100.00;96309.41;4990126;28;20062;-60
2021/09/18 07:20:06;;;;;;;20.40;12.73;;;;;;;18.93;100.00;96307.56;4991009;28;20057;-61
2021/09/18 07:22:36;;;;;;;17.23;12.50;;;;;;;18.81;100.00;96309.16;4987023;28;20086;-59
2021/09/18 07:25:05;;;;;;;15.30;11.27;;;;;;;19.36;100.00;96309.91;4991976;28;20955;-58
2021/09/18 07:27:34;;;;;;;18.63;14.10;;;;;;;19.34;100.00;96312.81;4988419;28;20328;-57
2021/09/18 07:30:04;;;;;;;14.93;11.88;;;;;;;18.50;100.00;96316.59;4984852;28;20739;-59
2021/09/18 07:32:33;;;;;;;17.02;12.27;;;;;;;19.00;100.00;96312.94;4987719;28;20066;-59
2021/09/18 07:35:05;;;;;;;14.70;12.18;;;;;;;19.54;100.00;96318.16;4983847;28;20520;-58
2021/09/18 07:37:36;;;;;;;18.00;12.65;;;;;;;19.42;100.00;96320.63;4983013;28;20081;-60
2021/09/18 07:40:08;;;;;;;17.42;12.65;;;;;;;19.81;100.00;96313.69;4990112;28;20089;-57
2021/09/18 07:42:37;;;;;;;15.95;13.07;;;;;;;20.29;100.00;96316.09;4986103;28;20185;-59
2021/09/18 07:45:07;;;;;;;16.40;13.43;;;;;;;20.20;100.00;96322.72;4985816;28;20065;-59
2021/09/18 07:47:36;;;;;;;17.35;13.25;;;;;;;20.14;100.00;96321.69;4986869;28;20117;-59
2021/09/18 07:50:06;;;;;;;20.37;13.60;;;;;;;19.49;100.00;96325.16;4989312;28;20058;-58
2021/09/18 07:52:36;;;;;;;17.52;13.38;;;;;;;19.87;100.00;96318.22;4991238;28;20078;-50
2021/09/18 07:55:05;;;;;;;16.00;13.00;;;;;;;20.12;100.00;96317.56;4990246;28;20078;-57
2021/09/18 07:57:54;;;;;;;17.92;12.35;;;;;;;19.79;100.00;96321.09;4979014;28;20377;-59
2021/09/18 08:00:22;;;;;;;15.30;12.85;;;;;;;20.12;100.00;96320.25;4985895;28;20077;-58
2021/09/18 08:02:52;;;;;;;14.48;11.65;;;;;;;20.26;100.00;96315.69;4987516;28;20070;-60
2021/09/18 08:05:21;;;;;;;14.80;12.05;;;;;;;20.46;100.00;96311.13;4987073;28;20065;-56
2021/09/18 08:07:51;;;;;;;15.32;11.63;;;;;;;20.12;100.00;96310.38;4982366;28;20061;-59
2021/09/18 08:10:19;;;;;;;15.80;12.43;;;;;;;20.80;100.00;96306.50;4988156;28;20081;-58
2021/09/18 08:12:48;;;;;;;14.43;11.73;;;;;;;20.71;100.00;96311.28;4985150;28;20077;-58
2021/09/18 08:15:17;;;;;;;15.90;11.95;;;;;;;21.01;100.00;96297.34;4987200;28;20066;-59
2021/09/18 08:17:47;;;;;;;17.33;11.45;;;;;;;21.64;100.00;96300.06;4985837;28;20069;-59
2021/09/18 08:20:17;;;;;;;14.00;10.87;;;;;;;21.73;100.00;96303.28;4987818;28;20066;-59
2021/09/18 08:22:47;;;;;;;14.95;10.73;;;;;;;21.81;100.00;96309.19;4983703;28;20547;-60
2021/09/18 08:25:17;;;;;;;12.63;10.43;;;;;;;21.09;100.00;96310.47;4995826;28;20521;-57
2021/09/18 08:27:45;;;;;;;12.80;10.98;;;;;;;21.68;100.00;96303.97;4987914;28;20061;-59
2021/09/18 08:30:14;;;;;;;12.38;10.30;;;;;;;21.51;100.00;96314.41;4987614;28;20465;-58
2021/09/18 08:32:43;;;;;;;11.52;9.60;;;;;;;21.77;100.00;96312.56;4986734;28;20520;-60
2021/09/18 08:35:12;;;;;;;11.10;9.68;;;;;;;21.77;100.00;96316.06;4987125;28;20069;-58
2021/09/18 08:37:40;;;;;;;12.77;9.80;;;;;;;22.29;100.00;96310.47;4985293;28;20197;-57
2021/09/18 08:40:10;;;;;;;13.35;10.50;;;;;;;21.81;100.00;96316.44;4982665;28;20065;-60
2021/09/18 08:42:41;;;;;;;13.93;10.57;;;;;;;21.21;100.00;96313.31;4988079;28;20066;-57
2021/09/18 08:45:12;;;;;;;11.90;10.18;;;;;;;22.07;100.00;96317.28;4986908;28;20093;-61
2021/09/18 08:47:42;;;;;;;11.25;9.73;;;;;;;21.90;100.00;96309.75;4985539;28;20073;-60
2021/09/18 08:50:14;;;;;;;11.95;9.50;;;;;;;21.45;100.00;96312.59;4978251;28;20074;-60
2021/09/18 08:52:43;;;;;;;11.85;10.20;;;;;;;22.12;100.00;96306.66;4987567;28;20092;-57
2021/09/18 08:55:11;;;;;;;11.40;9.05;;;;;;;21.72;100.00;96307.03;4988895;28;20090;-59
2021/09/18 08:57:41;;;;;;;10.98;9.35;;;;;;;21.71;100.00;96311.59;4984861;28;20076;-55
2021/09/18 09:00:46;;;;;;;10.02;8.40;;;;;;;21.66;95.87;96310.59;4985476;28;20516;-59
2021/09/18 09:03:20;;;;;;;9.98;8.50;;;;;;;22.26;94.74;96301.00;4986334;28;20066;-60
2021/09/18 09:05:49;;;;;;;9.45;8.40;;;;;;;22.51;90.13;96294.75;4984443;28;20069;-60
2021/09/18 09:08:21;;;;;;;8.55;7.35;;;;;;;21.81;82.57;96309.19;4985163;28;20521;-59
2021/09/18 09:10:53;;;;;;;11.38;8.40;;;;;;;22.46;94.05;96306.16;4992970;28;20050;-60
2021/09/18 09:13:24;;;;;;;9.55;7.75;;;;;;;22.26;85.46;96305.53;4986512;28;20085;-60
2021/09/18 09:16:09;;;;;;;11.43;8.80;;;;;;;22.58;82.67;96295.50;4982905;28;20398;-60
2021/09/18 09:18:41;;;;;;;10.23;8.40;;;;;;;23.36;78.81;96300.06;4985288;28;20737;-58
2021/09/18 09:21:12;;;;;;;9.68;7.80;;;;;;;22.79;87.40;96298.75;4978682;28;20077;-60
2021/09/18 09:23:42;;;;;;;9.13;7.13;;;;;;;23.23;81.62;96294.91;4989965;28;20523;-59
2021/09/18 09:26:11;;;;;;;7.28;6.57;;;;;;;22.38;87.92;96292.19;4988696;28;20072;-61
2021/09/18 09:28:42;;;;;;;6.82;5.90;;;;;;;22.62;78.98;96291.31;4990576;28;20516;-58
2021/09/18 09:31:13;;;;;;;6.32;5.50;;;;;;;22.84;71.82;96290.84;4989648;28;20136;-60
2021/09/18 09:34:01;;;;;;;7.93;6.25;;;;;;;23.79;66.81;96290.16;4984644;28;20074;-58
2021/09/18 09:36:31;;;;;;;6.82;5.80;;;;;;;22.24;77.32;96295.03;4983599;28;20073;-58
2021/09/18 09:39:00;;;;;;;6.68;5.32;;;;;;;22.41;69.86;96287.19;4985336;28;20058;-57
2021/09/18 09:41:35;;;;;;;6.80;5.50;;;;;;;23.43;62.37;96283.84;4984097;28;20436;-59
2021/09/18 09:44:10;;;;;;;6.15;4.78;;;;;;;23.00;69.96;96282.19;4983242;28;20089;-54
2021/09/18 09:46:38;;;;;;;5.80;5.20;;;;;;;23.67;64.83;96277.50;4982028;28;20089;-60
2021/09/18 09:49:13;;;;;;;7.45;6.20;;;;;;;23.74;63.96;96279.25;4989843;28;20203;-59
2021/09/18 09:51:43;;;;;;;7.43;5.97;;;;;;;24.30;57.35;96280.56;4985699;28;20082;-59
2021/09/18 09:54:25;;;;;;;5.25;4.63;;;;;;;23.90;60.96;96289.34;4992702;28;20073;-60
2021/09/18 09:57:07;;;;;;;6.75;5.80;;;;;;;23.55;63.91;96282.00;4988603;28;20065;-58
2021/09/18 09:59:37;;;;;;;7.55;6.00;;;;;;;22.79;64.15;96293.41;4988043;28;20074;-58
2021/09/18 10:02:07;;;;;;;6.20;5.60;;;;;;;24.07;56.01;96287.59;4987913;28;20075;-57
2021/09/18 10:04:36;;;;;;;6.53;5.07;;;;;;;24.55;56.46;96281.16;4986500;28;20086;-58
2021/09/18 10:07:05;;;;;;;6.28;5.20;;;;;;;23.78;59.33;96288.50;4987427;28;20082;-59
2021/09/18 10:09:36;;;;;;;6.10;5.50;;;;;;;24.46;56.74;96276.34;4989578;28;20070;-60
2021/09/18 10:12:05;;;;;;;7.88;6.07;;;;;;;23.74;61.53;96280.06;4983943;28;20070;-57
2021/09/18 10:14:35;;;;;;;5.68;4.95;;;;;;;23.89;63.00;96285.84;4995539;28;20468;-61
2021/09/18 10:17:05;;;;;;;4.72;4.00;;;;;;;23.66;57.28;96286.59;4989010;28;20068;-58
2021/09/18 10:19:55;;;;;;;5.00;4.07;;;;;;;24.02;56.29;96287.50;4988334;28;20487;-58
2021/09/18 10:25:16;;;;;;;5.07;4.55;;;;;;;23.81;52.92;96290.72;4991376;28;20427;-59
2021/09/18 10:28:01;;;;;;;7.57;5.03;;;;;;;24.14;58.78;96279.41;4988146;28;20069;-60
2021/09/18 10:30:32;;;;;;;6.40;5.47;;;;;;;24.07;56.89;96278.69;4987279;28;20068;-60
2021/09/18 10:33:04;;;;;;;4.88;4.13;;;;;;;24.08;53.49;96277.63;4987608;28;20460;-58
2021/09/18 10:35:33;;;;;;;5.22;4.60;;;;;;;23.78;56.04;96270.50;4987899;28;20098;-62
2021/09/18 10:38:19;;;;;;;8.73;5.90;;;;;;;24.55;53.75;96269.53;4987490;28;20075;-59
2021/09/18 10:40:55;;;;;;;6.70;5.80;;;;;;;24.45;51.27;96262.06;4988532;28;20472;-57
2021/09/18 10:43:28;;;;;;;5.90;5.28;;;;;;;24.86;54.48;96266.41;4986630;28;20086;-55
2021/09/18 10:45:57;;;;;;;5.07;3.63;;;;;;;24.22;54.26;96265.56;4986137;28;20465;-56
2021/09/18 10:48:51;;;;;;;6.00;4.47;;;;;;;23.67;54.61;96268.56;4990055;28;20069;-59
2021/09/18 10:51:38;;;;;;;4.20;3.80;;;;;;;24.06;53.45;96269.81;4992459;28;20070;-60
2021/09/18 10:54:10;;;;;;;5.15;3.70;;;;;;;24.34;52.22;96262.88;4985234;28;20070;-59
2021/09/18 10:56:58;;;;;;;4.97;4.20;;;;;;;24.65;50.75;96264.38;4993778;28;20120;-54
2021/09/18 10:59:40;;;;;;;5.97;5.38;;;;;;;24.77;54.08;96270.53;4986307;28;20058;-60
2021/09/18 11:02:40;;;;;;;7.45;4.95;;;;;;;25.47;50.43;96265.94;4987274;28;20066;-58
2021/09/18 11:05:11;;;;;;;6.32;4.35;;;;;;;25.56;48.80;96265.28;4987742;28;20074;-59
2021/09/18 11:07:44;;;;;;;4.30;2.92;;;;;;;24.91;45.25;96259.47;4985945;28;20078;-58
2021/09/18 11:10:14;;;;;;;3.72;3.20;;;;;;;25.24;44.11;96256.91;4990177;28;20137;-59
2021/09/18 11:12:43;;;;;;;5.10;3.90;;;;;;;24.80;45.86;96261.97;4987608;28;20065;-60
2021/09/18 11:15:13;;;;;;;4.03;3.33;;;;;;;24.88;46.72;96255.41;4986955;28;20058;-59
2021/09/18 11:17:43;;;;;;;4.10;3.58;;;;;;;24.92;45.23;96256.53;4986938;28;20064;-59
2021/09/18 11:20:14;;;;;;;4.50;3.90;;;;;;;25.18;46.34;96248.94;4988498;28;20046;-60
2021/09/18 11:22:43;;;;;;;5.13;4.63;;;;;;;25.77;46.82;96244.00;4985650;28;20078;-60
2021/09/18 11:25:29;;;;;;;4.97;4.47;;;;;;;25.73;44.68;96242.88;4993823;28;20082;-60
2021/09/18 11:28:02;;;;;;;4.85;4.30;;;;;;;26.00;45.11;96243.06;4983805;28;20728;-54
2021/09/18 11:30:41;;;;;;;6.63;4.00;;;;;;;25.93;46.77;96245.91;4984207;28;20077;-58
2021/09/18 11:33:10;;;;;;;4.53;3.90;;;;;;;26.61;43.77;96235.81;4988235;28;20078;-58
2021/09/18 11:35:41;;;;;;;4.43;3.63;;;;;;;25.56;46.53;96235.56;4989804;28;20504;-59